sensor_id;sensor_type;location;lat;lon;timestamp;P1;durP1;ratioP1;P2;durP2;ratioP2
28343;SDS011;15597;50.914;6.638;2023-05-29T00:00:13;5.50;;;2.72;;
28343;SDS011;15597;50.914;6.638;2023-05-29T00:02:41;5.63;;;2.30;;
28343;SDS011;15597;50.914;6.638;2023-05-29T00:07:38;6.38;;;2.38;;
28343;SDS011;15597;50.914;6.638;2023-05-29T00:10:04;6.97;;;2.30;;
28343;SDS011;15597;50.914;6.638;2023-05-29T00:12:30;6.50;;;2.42;;
28343;SDS011;15597;50.914;6.638;2023-05-29T00:14:57;5.03;;;2.15;;
28343;SDS011;15597;50.914;6.638;2023-05-29T00:17:23;6.75;;;2.33;;
28343;SDS011;15597;50.914;6.638;2023-05-29T00:19:48;6.50;;;2.35;;
28343;SDS011;15597;50.914;6.638;2023-05-29T00:22:14;6.10;;;2.42;;
28343;SDS011;15597;50.914;6.638;2023-05-29T00:24:40;5.55;;;2.60;;
28343;SDS011;15597;50.914;6.638;2023-05-29T00:27:06;5.13;;;2.22;;
28343;SDS011;15597;50.914;6.638;2023-05-29T00:29:31;9.43;;;2.50;;
28343;SDS011;15597;50.914;6.638;2023-05-29T00:31:57;5.35;;;2.38;;
28343;SDS011;15597;50.914;6.638;2023-05-29T00:34:23;5.93;;;2.50;;
28343;SDS011;15597;50.914;6.638;2023-05-29T00:36:50;6.03;;;2.40;;
28343;SDS011;15597;50.914;6.638;2023-05-29T00:39:16;5.57;;;2.30;;
28343;SDS011;15597;50.914;6.638;2023-05-29T00:41:41;4.80;;;2.30;;
28343;SDS011;15597;50.914;6.638;2023-05-29T00:44:07;5.32;;;2.17;;
28343;SDS011;15597;50.914;6.638;2023-05-29T00:46:33;4.28;;;1.98;;
28343;SDS011;15597;50.914;6.638;2023-05-29T00:49:00;5.07;;;2.30;;
28343;SDS011;15597;50.914;6.638;2023-05-29T00:51:27;6.00;;;2.70;;
28343;SDS011;15597;50.914;6.638;2023-05-29T00:53:54;5.55;;;2.40;;
28343;SDS011;15597;50.914;6.638;2023-05-29T00:56:20;4.65;;;2.10;;
28343;SDS011;15597;50.914;6.638;2023-05-29T00:58:48;6.97;;;2.63;;
28343;SDS011;15597;50.914;6.638;2023-05-29T01:01:16;6.13;;;2.20;;
28343;SDS011;15597;50.914;6.638;2023-05-29T01:03:43;5.55;;;2.05;;
28343;SDS011;15597;50.914;6.638;2023-05-29T01:06:11;5.88;;;2.55;;
28343;SDS011;15597;50.914;6.638;2023-05-29T01:08:36;5.78;;;2.13;;
28343;SDS011;15597;50.914;6.638;2023-05-29T01:11:05;4.63;;;2.30;;
28343;SDS011;15597;50.914;6.638;2023-05-29T01:13:52;4.45;;;2.30;;
28343;SDS011;15597;50.914;6.638;2023-05-29T01:16:24;5.20;;;2.30;;
28343;SDS011;15597;50.914;6.638;2023-05-29T01:19:23;5.05;;;2.38;;
28343;SDS011;15597;50.914;6.638;2023-05-29T01:22:11;5.40;;;2.40;;
28343;SDS011;15597;50.914;6.638;2023-05-29T01:27:28;4.78;;;2.30;;
28343;SDS011;15597;50.914;6.638;2023-05-29T01:30:14;4.80;;;2.20;;
28343;SDS011;15597;50.914;6.638;2023-05-29T01:32:41;5.90;;;2.35;;
28343;SDS011;15597;50.914;6.638;2023-05-29T01:35:08;4.68;;;1.98;;
28343;SDS011;15597;50.914;6.638;2023-05-29T01:37:33;5.00;;;2.33;;
28343;SDS011;15597;50.914;6.638;2023-05-29T01:39:59;5.30;;;2.40;;
28343;SDS011;15597;50.914;6.638;2023-05-29T01:42:26;4.78;;;2.20;;
28343;SDS011;15597;50.914;6.638;2023-05-29T01:44:54;5.65;;;2.45;;
28343;SDS011;15597;50.914;6.638;2023-05-29T01:47:21;5.22;;;2.05;;
28343;SDS011;15597;50.914;6.638;2023-05-29T01:49:49;5.32;;;2.10;;
28343;SDS011;15597;50.914;6.638;2023-05-29T01:52:16;6.32;;;2.03;;
28343;SDS011;15597;50.914;6.638;2023-05-29T01:54:43;5.88;;;2.30;;
28343;SDS011;15597;50.914;6.638;2023-05-29T01:57:09;5.13;;;2.20;;
28343;SDS011;15597;50.914;6.638;2023-05-29T01:59:35;4.82;;;2.30;;
28343;SDS011;15597;50.914;6.638;2023-05-29T02:02:08;6.40;;;2.40;;
28343;SDS011;15597;50.914;6.638;2023-05-29T02:04:34;4.93;;;2.30;;
28343;SDS011;15597;50.914;6.638;2023-05-29T02:07:00;4.47;;;2.20;;
28343;SDS011;15597;50.914;6.638;2023-05-29T02:09:25;5.32;;;2.40;;
28343;SDS011;15597;50.914;6.638;2023-05-29T02:11:51;5.30;;;2.13;;
28343;SDS011;15597;50.914;6.638;2023-05-29T02:14:17;6.18;;;2.17;;
28343;SDS011;15597;50.914;6.638;2023-05-29T02:16:43;5.10;;;2.30;;
28343;SDS011;15597;50.914;6.638;2023-05-29T02:19:10;5.68;;;2.35;;
28343;SDS011;15597;50.914;6.638;2023-05-29T02:21:39;5.53;;;2.25;;
28343;SDS011;15597;50.914;6.638;2023-05-29T02:24:06;5.38;;;2.20;;
28343;SDS011;15597;50.914;6.638;2023-05-29T02:26:33;4.35;;;1.90;;
28343;SDS011;15597;50.914;6.638;2023-05-29T02:28:59;5.30;;;2.00;;
28343;SDS011;15597;50.914;6.638;2023-05-29T02:31:25;6.28;;;2.67;;
28343;SDS011;15597;50.914;6.638;2023-05-29T02:33:51;4.55;;;2.15;;
28343;SDS011;15597;50.914;6.638;2023-05-29T02:36:17;5.22;;;2.40;;
28343;SDS011;15597;50.914;6.638;2023-05-29T02:38:43;5.28;;;2.20;;
28343;SDS011;15597;50.914;6.638;2023-05-29T02:41:08;5.65;;;2.28;;
28343;SDS011;15597;50.914;6.638;2023-05-29T02:43:34;9.95;;;2.20;;
28343;SDS011;15597;50.914;6.638;2023-05-29T02:46:00;5.35;;;2.33;;
28343;SDS011;15597;50.914;6.638;2023-05-29T02:48:25;6.13;;;2.10;;
28343;SDS011;15597;50.914;6.638;2023-05-29T02:50:51;5.20;;;2.20;;
28343;SDS011;15597;50.914;6.638;2023-05-29T02:53:17;7.30;;;2.30;;
28343;SDS011;15597;50.914;6.638;2023-05-29T02:55:44;4.97;;;2.22;;
28343;SDS011;15597;50.914;6.638;2023-05-29T02:58:10;6.53;;;2.22;;
28343;SDS011;15597;50.914;6.638;2023-05-29T03:00:36;6.97;;;2.25;;
28343;SDS011;15597;50.914;6.638;2023-05-29T03:03:02;4.70;;;2.10;;
28343;SDS011;15597;50.914;6.638;2023-05-29T03:05:28;5.53;;;2.00;;
28343;SDS011;15597;50.914;6.638;2023-05-29T03:07:54;5.63;;;2.20;;
28343;SDS011;15597;50.914;6.638;2023-05-29T03:10:19;4.95;;;2.00;;
28343;SDS011;15597;50.914;6.638;2023-05-29T03:12:45;4.88;;;2.20;;
28343;SDS011;15597;50.914;6.638;2023-05-29T03:15:12;4.85;;;2.10;;
28343;SDS011;15597;50.914;6.638;2023-05-29T03:17:38;6.63;;;2.38;;
28343;SDS011;15597;50.914;6.638;2023-05-29T03:20:07;5.25;;;2.25;;
28343;SDS011;15597;50.914;6.638;2023-05-29T03:22:34;6.80;;;1.92;;
28343;SDS011;15597;50.914;6.638;2023-05-29T03:25:01;7.68;;;2.22;;
28343;SDS011;15597;50.914;6.638;2023-05-29T03:27:27;4.68;;;1.80;;
28343;SDS011;15597;50.914;6.638;2023-05-29T03:30:01;6.82;;;2.42;;
28343;SDS011;15597;50.914;6.638;2023-05-29T03:32:26;5.53;;;2.10;;
28343;SDS011;15597;50.914;6.638;2023-05-29T03:34:52;5.22;;;2.10;;
28343;SDS011;15597;50.914;6.638;2023-05-29T03:37:17;5.72;;;2.10;;
28343;SDS011;15597;50.914;6.638;2023-05-29T03:39:43;6.03;;;2.00;;
28343;SDS011;15597;50.914;6.638;2023-05-29T03:42:09;5.00;;;2.00;;
28343;SDS011;15597;50.914;6.638;2023-05-29T03:44:35;5.63;;;1.70;;
28343;SDS011;15597;50.914;6.638;2023-05-29T03:47:02;6.25;;;2.30;;
28343;SDS011;15597;50.914;6.638;2023-05-29T03:49:30;5.68;;;2.03;;
28343;SDS011;15597;50.914;6.638;2023-05-29T03:51:55;5.60;;;1.85;;
28343;SDS011;15597;50.914;6.638;2023-05-29T03:54:21;5.90;;;2.00;;
28343;SDS011;15597;50.914;6.638;2023-05-29T03:56:47;5.63;;;2.08;;
28343;SDS011;15597;50.914;6.638;2023-05-29T03:59:14;4.10;;;1.80;;
28343;SDS011;15597;50.914;6.638;2023-05-29T04:01:39;6.07;;;2.13;;
28343;SDS011;15597;50.914;6.638;2023-05-29T04:04:05;4.78;;;1.92;;
28343;SDS011;15597;50.914;6.638;2023-05-29T04:06:30;5.28;;;2.05;;
28343;SDS011;15597;50.914;6.638;2023-05-29T04:08:57;6.05;;;1.92;;
28343;SDS011;15597;50.914;6.638;2023-05-29T04:11:22;5.72;;;2.00;;
28343;SDS011;15597;50.914;6.638;2023-05-29T04:13:48;7.85;;;1.85;;
28343;SDS011;15597;50.914;6.638;2023-05-29T04:16:14;6.30;;;1.95;;
28343;SDS011;15597;50.914;6.638;2023-05-29T04:18:41;8.75;;;2.10;;
28343;SDS011;15597;50.914;6.638;2023-05-29T04:21:07;5.88;;;1.75;;
28343;SDS011;15597;50.914;6.638;2023-05-29T04:23:33;7.75;;;1.92;;
28343;SDS011;15597;50.914;6.638;2023-05-29T04:25:58;7.07;;;2.00;;
28343;SDS011;15597;50.914;6.638;2023-05-29T04:28:27;5.72;;;1.65;;
28343;SDS011;15597;50.914;6.638;2023-05-29T04:30:54;6.97;;;2.08;;
28343;SDS011;15597;50.914;6.638;2023-05-29T04:33:21;7.53;;;2.28;;
28343;SDS011;15597;50.914;6.638;2023-05-29T04:35:50;6.93;;;2.15;;
28343;SDS011;15597;50.914;6.638;2023-05-29T04:38:16;6.40;;;1.90;;
28343;SDS011;15597;50.914;6.638;2023-05-29T04:40:43;4.63;;;1.75;;
28343;SDS011;15597;50.914;6.638;2023-05-29T04:45:53;5.75;;;1.90;;
28343;SDS011;15597;50.914;6.638;2023-05-29T04:48:19;6.55;;;1.85;;
28343;SDS011;15597;50.914;6.638;2023-05-29T04:50:45;5.75;;;2.10;;
28343;SDS011;15597;50.914;6.638;2023-05-29T04:53:11;9.02;;;2.30;;
28343;SDS011;15597;50.914;6.638;2023-05-29T04:55:37;6.70;;;2.15;;
28343;SDS011;15597;50.914;6.638;2023-05-29T04:58:02;6.75;;;2.30;;
28343;SDS011;15597;50.914;6.638;2023-05-29T05:00:28;4.38;;;1.80;;
28343;SDS011;15597;50.914;6.638;2023-05-29T05:02:53;8.55;;;2.33;;
28343;SDS011;15597;50.914;6.638;2023-05-29T05:05:19;6.18;;;1.90;;
28343;SDS011;15597;50.914;6.638;2023-05-29T05:07:45;4.70;;;1.77;;
28343;SDS011;15597;50.914;6.638;2023-05-29T05:10:12;5.60;;;1.70;;
28343;SDS011;15597;50.914;6.638;2023-05-29T05:12:37;6.07;;;1.90;;
28343;SDS011;15597;50.914;6.638;2023-05-29T05:15:03;4.53;;;1.83;;
28343;SDS011;15597;50.914;6.638;2023-05-29T05:17:30;4.43;;;1.88;;
28343;SDS011;15597;50.914;6.638;2023-05-29T05:19:56;6.13;;;1.80;;
28343;SDS011;15597;50.914;6.638;2023-05-29T05:22:21;7.25;;;2.22;;
28343;SDS011;15597;50.914;6.638;2023-05-29T05:24:48;8.07;;;2.10;;
28343;SDS011;15597;50.914;6.638;2023-05-29T05:27:14;5.45;;;1.75;;
28343;SDS011;15597;50.914;6.638;2023-05-29T05:29:40;8.07;;;1.85;;
28343;SDS011;15597;50.914;6.638;2023-05-29T05:32:05;7.00;;;1.70;;
28343;SDS011;15597;50.914;6.638;2023-05-29T05:34:32;8.27;;;2.17;;
28343;SDS011;15597;50.914;6.638;2023-05-29T05:36:58;8.23;;;2.22;;
28343;SDS011;15597;50.914;6.638;2023-05-29T05:39:23;7.15;;;1.90;;
28343;SDS011;15597;50.914;6.638;2023-05-29T05:41:50;6.88;;;1.92;;
28343;SDS011;15597;50.914;6.638;2023-05-29T05:44:29;6.13;;;1.92;;
28343;SDS011;15597;50.914;6.638;2023-05-29T05:47:02;7.30;;;2.10;;
28343;SDS011;15597;50.914;6.638;2023-05-29T05:49:28;6.80;;;1.90;;
28343;SDS011;15597;50.914;6.638;2023-05-29T05:51:53;5.93;;;1.83;;
28343;SDS011;15597;50.914;6.638;2023-05-29T05:54:19;5.10;;;1.50;;
28343;SDS011;15597;50.914;6.638;2023-05-29T05:56:44;6.05;;;1.92;;
28343;SDS011;15597;50.914;6.638;2023-05-29T05:59:14;5.72;;;1.75;;
28343;SDS011;15597;50.914;6.638;2023-05-29T06:01:40;4.90;;;1.90;;
28343;SDS011;15597;50.914;6.638;2023-05-29T06:04:07;8.27;;;2.13;;
28343;SDS011;15597;50.914;6.638;2023-05-29T06:06:32;6.25;;;2.03;;
28343;SDS011;15597;50.914;6.638;2023-05-29T06:08:58;5.60;;;1.90;;
28343;SDS011;15597;50.914;6.638;2023-05-29T06:11:24;5.78;;;1.80;;
28343;SDS011;15597;50.914;6.638;2023-05-29T06:13:51;6.65;;;1.77;;
28343;SDS011;15597;50.914;6.638;2023-05-29T06:16:22;6.22;;;1.77;;
28343;SDS011;15597;50.914;6.638;2023-05-29T06:18:48;5.70;;;1.70;;
28343;SDS011;15597;50.914;6.638;2023-05-29T06:21:16;7.57;;;2.20;;
28343;SDS011;15597;50.914;6.638;2023-05-29T06:23:53;6.43;;;1.92;;
28343;SDS011;15597;50.914;6.638;2023-05-29T06:26:19;6.05;;;1.83;;
28343;SDS011;15597;50.914;6.638;2023-05-29T06:28:46;6.95;;;2.05;;
28343;SDS011;15597;50.914;6.638;2023-05-29T06:31:12;6.88;;;1.50;;
28343;SDS011;15597;50.914;6.638;2023-05-29T06:33:38;8.23;;;2.15;;
28343;SDS011;15597;50.914;6.638;2023-05-29T06:36:04;5.35;;;1.77;;
28343;SDS011;15597;50.914;6.638;2023-05-29T06:38:30;5.97;;;1.90;;
28343;SDS011;15597;50.914;6.638;2023-05-29T06:40:57;4.00;;;1.45;;
28343;SDS011;15597;50.914;6.638;2023-05-29T06:43:23;5.68;;;2.00;;
28343;SDS011;15597;50.914;6.638;2023-05-29T06:45:51;6.55;;;1.75;;
28343;SDS011;15597;50.914;6.638;2023-05-29T06:48:16;6.72;;;2.10;;
28343;SDS011;15597;50.914;6.638;2023-05-29T06:50:45;9.13;;;1.98;;
28343;SDS011;15597;50.914;6.638;2023-05-29T06:53:40;7.18;;;2.05;;
28343;SDS011;15597;50.914;6.638;2023-05-29T06:56:07;7.53;;;2.30;;
28343;SDS011;15597;50.914;6.638;2023-05-29T06:58:33;8.38;;;1.90;;
28343;SDS011;15597;50.914;6.638;2023-05-29T07:00:59;8.45;;;2.00;;
28343;SDS011;15597;50.914;6.638;2023-05-29T07:03:54;4.45;;;1.65;;
28343;SDS011;15597;50.914;6.638;2023-05-29T07:06:20;9.52;;;2.40;;
28343;SDS011;15597;50.914;6.638;2023-05-29T07:08:45;5.40;;;1.75;;
28343;SDS011;15597;50.914;6.638;2023-05-29T07:11:11;9.48;;;2.08;;
28343;SDS011;15597;50.914;6.638;2023-05-29T07:13:37;6.15;;;1.60;;
28343;SDS011;15597;50.914;6.638;2023-05-29T07:16:02;7.32;;;2.00;;
28343;SDS011;15597;50.914;6.638;2023-05-29T07:18:32;8.52;;;2.20;;
28343;SDS011;15597;50.914;6.638;2023-05-29T07:20:59;6.28;;;1.88;;
28343;SDS011;15597;50.914;6.638;2023-05-29T07:23:26;6.72;;;1.90;;
28343;SDS011;15597;50.914;6.638;2023-05-29T07:25:52;6.50;;;1.90;;
28343;SDS011;15597;50.914;6.638;2023-05-29T07:28:18;8.45;;;1.98;;
28343;SDS011;15597;50.914;6.638;2023-05-29T07:30:43;6.65;;;1.80;;
28343;SDS011;15597;50.914;6.638;2023-05-29T07:33:09;9.90;;;2.13;;
28343;SDS011;15597;50.914;6.638;2023-05-29T07:35:36;5.85;;;1.70;;
28343;SDS011;15597;50.914;6.638;2023-05-29T07:38:03;8.18;;;2.05;;
28343;SDS011;15597;50.914;6.638;2023-05-29T07:40:29;5.00;;;1.63;;
28343;SDS011;15597;50.914;6.638;2023-05-29T07:43:09;7.88;;;2.10;;
28343;SDS011;15597;50.914;6.638;2023-05-29T07:45:46;8.10;;;2.30;;
28343;SDS011;15597;50.914;6.638;2023-05-29T07:48:11;12.25;;;2.58;;
28343;SDS011;15597;50.914;6.638;2023-05-29T07:50:37;6.65;;;2.00;;
28343;SDS011;15597;50.914;6.638;2023-05-29T07:53:03;5.95;;;1.67;;
28343;SDS011;15597;50.914;6.638;2023-05-29T07:55:30;13.45;;;2.60;;
28343;SDS011;15597;50.914;6.638;2023-05-29T07:57:56;8.10;;;2.00;;
28343;SDS011;15597;50.914;6.638;2023-05-29T08:00:22;10.35;;;2.53;;
28343;SDS011;15597;50.914;6.638;2023-05-29T08:02:50;8.45;;;2.22;;
28343;SDS011;15597;50.914;6.638;2023-05-29T08:05:29;5.43;;;1.60;;
28343;SDS011;15597;50.914;6.638;2023-05-29T08:07:56;5.32;;;1.70;;
28343;SDS011;15597;50.914;6.638;2023-05-29T08:10:24;10.02;;;2.15;;
28343;SDS011;15597;50.914;6.638;2023-05-29T08:12:50;6.47;;;1.77;;
28343;SDS011;15597;50.914;6.638;2023-05-29T08:15:17;7.55;;;1.90;;
28343;SDS011;15597;50.914;6.638;2023-05-29T08:17:44;7.53;;;2.22;;
28343;SDS011;15597;50.914;6.638;2023-05-29T08:20:09;7.32;;;2.10;;
28343;SDS011;15597;50.914;6.638;2023-05-29T08:22:35;6.10;;;1.58;;
28343;SDS011;15597;50.914;6.638;2023-05-29T08:25:01;6.72;;;1.70;;
28343;SDS011;15597;50.914;6.638;2023-05-29T08:27:27;7.50;;;2.10;;
28343;SDS011;15597;50.914;6.638;2023-05-29T08:29:52;7.93;;;2.08;;
28343;SDS011;15597;50.914;6.638;2023-05-29T08:32:19;5.80;;;1.50;;
28343;SDS011;15597;50.914;6.638;2023-05-29T08:34:46;6.22;;;2.00;;
28343;SDS011;15597;50.914;6.638;2023-05-29T08:37:12;5.45;;;1.52;;
28343;SDS011;15597;50.914;6.638;2023-05-29T08:39:39;5.78;;;1.70;;
28343;SDS011;15597;50.914;6.638;2023-05-29T08:42:07;4.38;;;1.52;;
28343;SDS011;15597;50.914;6.638;2023-05-29T08:44:35;7.28;;;2.28;;
28343;SDS011;15597;50.914;6.638;2023-05-29T08:47:05;8.88;;;2.30;;
28343;SDS011;15597;50.914;6.638;2023-05-29T08:49:34;6.35;;;1.67;;
28343;SDS011;15597;50.914;6.638;2023-05-29T08:52:11;6.68;;;1.70;;
28343;SDS011;15597;50.914;6.638;2023-05-29T08:54:41;6.45;;;2.20;;
28343;SDS011;15597;50.914;6.638;2023-05-29T08:57:08;6.63;;;2.15;;
28343;SDS011;15597;50.914;6.638;2023-05-29T08:59:35;7.32;;;2.35;;
28343;SDS011;15597;50.914;6.638;2023-05-29T09:02:02;8.23;;;2.22;;
28343;SDS011;15597;50.914;6.638;2023-05-29T09:04:28;8.75;;;1.95;;
28343;SDS011;15597;50.914;6.638;2023-05-29T09:06:57;5.35;;;1.77;;
28343;SDS011;15597;50.914;6.638;2023-05-29T09:09:24;7.97;;;2.35;;
28343;SDS011;15597;50.914;6.638;2023-05-29T09:11:52;10.23;;;2.40;;
28343;SDS011;15597;50.914;6.638;2023-05-29T09:17:04;10.20;;;2.92;;
28343;SDS011;15597;50.914;6.638;2023-05-29T09:19:31;8.13;;;2.00;;
28343;SDS011;15597;50.914;6.638;2023-05-29T09:22:10;5.20;;;1.58;;
28343;SDS011;15597;50.914;6.638;2023-05-29T09:24:40;6.45;;;1.90;;
28343;SDS011;15597;50.914;6.638;2023-05-29T09:27:07;10.05;;;1.98;;
28343;SDS011;15597;50.914;6.638;2023-05-29T09:29:45;5.53;;;1.70;;
28343;SDS011;15597;50.914;6.638;2023-05-29T09:32:31;7.60;;;2.15;;
28343;SDS011;15597;50.914;6.638;2023-05-29T09:34:59;7.22;;;1.88;;
28343;SDS011;15597;50.914;6.638;2023-05-29T09:37:26;10.23;;;2.22;;
28343;SDS011;15597;50.914;6.638;2023-05-29T09:39:51;4.95;;;1.65;;
28343;SDS011;15597;50.914;6.638;2023-05-29T09:42:17;6.70;;;1.85;;
28343;SDS011;15597;50.914;6.638;2023-05-29T09:44:44;4.97;;;1.52;;
28343;SDS011;15597;50.914;6.638;2023-05-29T09:47:16;7.75;;;1.92;;
28343;SDS011;15597;50.914;6.638;2023-05-29T09:49:42;6.47;;;1.88;;
28343;SDS011;15597;50.914;6.638;2023-05-29T09:52:12;9.98;;;2.53;;
28343;SDS011;15597;50.914;6.638;2023-05-29T09:54:44;8.75;;;1.90;;
28343;SDS011;15597;50.914;6.638;2023-05-29T09:57:11;7.80;;;2.05;;
28343;SDS011;15597;50.914;6.638;2023-05-29T09:59:38;7.22;;;2.15;;
28343;SDS011;15597;50.914;6.638;2023-05-29T10:02:04;5.82;;;2.25;;
28343;SDS011;15597;50.914;6.638;2023-05-29T10:04:33;7.03;;;2.00;;
28343;SDS011;15597;50.914;6.638;2023-05-29T10:07:05;8.38;;;2.38;;
28343;SDS011;15597;50.914;6.638;2023-05-29T10:09:41;5.32;;;1.65;;
28343;SDS011;15597;50.914;6.638;2023-05-29T10:12:13;7.05;;;2.00;;
28343;SDS011;15597;50.914;6.638;2023-05-29T10:14:45;6.82;;;2.00;;
28343;SDS011;15597;50.914;6.638;2023-05-29T10:17:14;8.68;;;2.00;;
28343;SDS011;15597;50.914;6.638;2023-05-29T10:19:43;5.78;;;1.88;;
28343;SDS011;15597;50.914;6.638;2023-05-29T10:22:12;6.00;;;1.75;;
28343;SDS011;15597;50.914;6.638;2023-05-29T10:24:42;6.78;;;1.90;;
28343;SDS011;15597;50.914;6.638;2023-05-29T10:27:08;5.90;;;1.70;;
28343;SDS011;15597;50.914;6.638;2023-05-29T10:29:38;7.82;;;2.08;;
28343;SDS011;15597;50.914;6.638;2023-05-29T10:37:22;5.22;;;1.77;;
28343;SDS011;15597;50.914;6.638;2023-05-29T10:40:07;6.53;;;1.95;;
28343;SDS011;15597;50.914;6.638;2023-05-29T10:42:40;8.25;;;2.13;;
28343;SDS011;15597;50.914;6.638;2023-05-29T10:45:10;7.35;;;2.10;;
28343;SDS011;15597;50.914;6.638;2023-05-29T10:53:10;5.95;;;1.75;;
28343;SDS011;15597;50.914;6.638;2023-05-29T10:55:44;6.18;;;1.98;;
28343;SDS011;15597;50.914;6.638;2023-05-29T10:58:23;7.60;;;1.88;;
28343;SDS011;15597;50.914;6.638;2023-05-29T11:00:51;7.22;;;1.80;;
28343;SDS011;15597;50.914;6.638;2023-05-29T11:03:24;7.30;;;2.05;;
28343;SDS011;15597;50.914;6.638;2023-05-29T11:06:06;7.47;;;2.13;;
28343;SDS011;15597;50.914;6.638;2023-05-29T11:08:42;8.30;;;2.10;;
28343;SDS011;15597;50.914;6.638;2023-05-29T11:11:12;5.07;;;1.63;;
28343;SDS011;15597;50.914;6.638;2023-05-29T11:13:39;7.82;;;1.92;;
28343;SDS011;15597;50.914;6.638;2023-05-29T11:16:19;6.30;;;1.60;;
28343;SDS011;15597;50.914;6.638;2023-05-29T11:18:46;7.22;;;1.83;;
28343;SDS011;15597;50.914;6.638;2023-05-29T11:21:29;6.25;;;1.60;;
28343;SDS011;15597;50.914;6.638;2023-05-29T11:24:07;7.07;;;2.17;;
28343;SDS011;15597;50.914;6.638;2023-05-29T11:26:33;7.22;;;2.15;;
28343;SDS011;15597;50.914;6.638;2023-05-29T11:29:05;8.15;;;2.10;;
28343;SDS011;15597;50.914;6.638;2023-05-29T11:31:32;6.82;;;2.03;;
28343;SDS011;15597;50.914;6.638;2023-05-29T11:34:00;6.32;;;1.67;;
28343;SDS011;15597;50.914;6.638;2023-05-29T11:36:32;7.60;;;1.92;;
28343;SDS011;15597;50.914;6.638;2023-05-29T11:38:58;5.38;;;1.98;;
28343;SDS011;15597;50.914;6.638;2023-05-29T11:41:25;9.68;;;2.47;;
28343;SDS011;15597;50.914;6.638;2023-05-29T11:44:01;8.90;;;2.67;;
28343;SDS011;15597;50.914;6.638;2023-05-29T11:46:28;5.13;;;1.60;;
28343;SDS011;15597;50.914;6.638;2023-05-29T11:49:00;9.25;;;1.83;;
28343;SDS011;15597;50.914;6.638;2023-05-29T11:51:27;7.22;;;1.92;;
28343;SDS011;15597;50.914;6.638;2023-05-29T11:53:53;8.85;;;2.45;;
28343;SDS011;15597;50.914;6.638;2023-05-29T11:56:24;8.23;;;2.05;;
28343;SDS011;15597;50.914;6.638;2023-05-29T11:58:54;8.27;;;2.30;;
28343;SDS011;15597;50.914;6.638;2023-05-29T12:01:22;5.65;;;2.10;;
28343;SDS011;15597;50.914;6.638;2023-05-29T12:03:50;7.53;;;2.20;;
28343;SDS011;15597;50.914;6.638;2023-05-29T12:06:16;9.55;;;2.25;;
28343;SDS011;15597;50.914;6.638;2023-05-29T12:08:56;6.25;;;1.88;;
28343;SDS011;15597;50.914;6.638;2023-05-29T12:11:24;5.95;;;2.10;;
28343;SDS011;15597;50.914;6.638;2023-05-29T12:13:58;9.18;;;2.03;;
28343;SDS011;15597;50.914;6.638;2023-05-29T12:16:29;6.00;;;2.00;;
28343;SDS011;15597;50.914;6.638;2023-05-29T12:18:58;7.57;;;1.92;;
28343;SDS011;15597;50.914;6.638;2023-05-29T12:21:24;8.05;;;2.03;;
28343;SDS011;15597;50.914;6.638;2023-05-29T12:23:53;6.82;;;1.92;;
28343;SDS011;15597;50.914;6.638;2023-05-29T12:26:23;6.05;;;2.10;;
28343;SDS011;15597;50.914;6.638;2023-05-29T12:28:50;7.78;;;1.98;;
28343;SDS011;15597;50.914;6.638;2023-05-29T12:31:27;8.50;;;2.10;;
28343;SDS011;15597;50.914;6.638;2023-05-29T12:33:53;6.43;;;1.83;;
28343;SDS011;15597;50.914;6.638;2023-05-29T12:36:19;7.00;;;1.88;;
28343;SDS011;15597;50.914;6.638;2023-05-29T12:38:48;6.53;;;1.88;;
28343;SDS011;15597;50.914;6.638;2023-05-29T12:41:25;6.35;;;1.67;;
28343;SDS011;15597;50.914;6.638;2023-05-29T12:43:53;10.13;;;2.60;;
28343;SDS011;15597;50.914;6.638;2023-05-29T12:46:20;5.78;;;1.85;;
28343;SDS011;15597;50.914;6.638;2023-05-29T12:48:46;6.40;;;1.77;;
28343;SDS011;15597;50.914;6.638;2023-05-29T12:51:12;6.57;;;1.60;;
28343;SDS011;15597;50.914;6.638;2023-05-29T12:53:38;6.53;;;1.80;;
28343;SDS011;15597;50.914;6.638;2023-05-29T12:56:04;6.13;;;1.80;;
28343;SDS011;15597;50.914;6.638;2023-05-29T12:58:30;8.85;;;2.17;;
28343;SDS011;15597;50.914;6.638;2023-05-29T13:00:55;6.15;;;1.60;;
28343;SDS011;15597;50.914;6.638;2023-05-29T13:03:21;6.75;;;2.08;;
28343;SDS011;15597;50.914;6.638;2023-05-29T13:05:49;8.13;;;2.10;;
28343;SDS011;15597;50.914;6.638;2023-05-29T13:08:15;7.13;;;2.10;;
28343;SDS011;15597;50.914;6.638;2023-05-29T13:10:41;7.65;;;2.30;;
28343;SDS011;15597;50.914;6.638;2023-05-29T13:13:06;6.07;;;1.60;;
28343;SDS011;15597;50.914;6.638;2023-05-29T13:15:32;6.43;;;1.83;;
28343;SDS011;15597;50.914;6.638;2023-05-29T13:17:59;7.80;;;1.83;;
28343;SDS011;15597;50.914;6.638;2023-05-29T13:20:24;5.32;;;1.90;;
28343;SDS011;15597;50.914;6.638;2023-05-29T13:22:50;4.45;;;1.50;;
28343;SDS011;15597;50.914;6.638;2023-05-29T13:25:16;6.25;;;1.90;;
28343;SDS011;15597;50.914;6.638;2023-05-29T13:27:46;5.22;;;1.73;;
28343;SDS011;15597;50.914;6.638;2023-05-29T13:30:13;5.70;;;2.10;;
28343;SDS011;15597;50.914;6.638;2023-05-29T13:32:40;5.63;;;1.90;;
28343;SDS011;15597;50.914;6.638;2023-05-29T13:35:06;7.05;;;2.03;;
28343;SDS011;15597;50.914;6.638;2023-05-29T13:37:32;7.78;;;1.90;;
28343;SDS011;15597;50.914;6.638;2023-05-29T13:39:59;6.68;;;2.20;;
28343;SDS011;15597;50.914;6.638;2023-05-29T13:42:24;6.30;;;1.77;;
28343;SDS011;15597;50.914;6.638;2023-05-29T13:44:50;6.57;;;2.03;;
28343;SDS011;15597;50.914;6.638;2023-05-29T13:47:16;7.40;;;1.83;;
28343;SDS011;15597;50.914;6.638;2023-05-29T13:49:42;5.88;;;1.80;;
28343;SDS011;15597;50.914;6.638;2023-05-29T13:52:08;5.75;;;2.00;;
28343;SDS011;15597;50.914;6.638;2023-05-29T13:54:33;11.10;;;5.07;;
28343;SDS011;15597;50.914;6.638;2023-05-29T13:57:05;10.13;;;4.25;;
28343;SDS011;15597;50.914;6.638;2023-05-29T13:59:32;6.50;;;2.67;;
28343;SDS011;15597;50.914;6.638;2023-05-29T14:01:59;6.78;;;2.13;;
28343;SDS011;15597;50.914;6.638;2023-05-29T14:04:25;9.05;;;4.20;;
28343;SDS011;15597;50.914;6.638;2023-05-29T14:06:51;7.68;;;2.83;;
28343;SDS011;15597;50.914;6.638;2023-05-29T14:09:17;10.23;;;3.95;;
28343;SDS011;15597;50.914;6.638;2023-05-29T14:11:47;7.97;;;3.20;;
28343;SDS011;15597;50.914;6.638;2023-05-29T14:14:13;9.18;;;3.67;;
28343;SDS011;15597;50.914;6.638;2023-05-29T14:16:40;8.10;;;2.75;;
28343;SDS011;15597;50.914;6.638;2023-05-29T14:19:06;9.73;;;3.50;;
28343;SDS011;15597;50.914;6.638;2023-05-29T14:21:32;9.52;;;5.20;;
28343;SDS011;15597;50.914;6.638;2023-05-29T14:23:57;11.88;;;5.53;;
28343;SDS011;15597;50.914;6.638;2023-05-29T14:26:23;10.65;;;5.90;;
28343;SDS011;15597;50.914;6.638;2023-05-29T14:28:48;12.73;;;6.07;;
28343;SDS011;15597;50.914;6.638;2023-05-29T14:31:14;12.02;;;3.22;;
28343;SDS011;15597;50.914;6.638;2023-05-29T14:33:40;6.47;;;2.30;;
28343;SDS011;15597;50.914;6.638;2023-05-29T14:36:06;6.10;;;2.30;;
28343;SDS011;15597;50.914;6.638;2023-05-29T14:38:31;6.15;;;2.30;;
28343;SDS011;15597;50.914;6.638;2023-05-29T14:40:57;6.10;;;2.30;;
28343;SDS011;15597;50.914;6.638;2023-05-29T14:43:22;6.53;;;2.03;;
28343;SDS011;15597;50.914;6.638;2023-05-29T14:45:48;8.18;;;2.72;;
28343;SDS011;15597;50.914;6.638;2023-05-29T14:48:13;8.10;;;2.33;;
28343;SDS011;15597;50.914;6.638;2023-05-29T14:50:41;5.95;;;2.05;;
28343;SDS011;15597;50.914;6.638;2023-05-29T14:53:07;5.78;;;2.10;;
28343;SDS011;15597;50.914;6.638;2023-05-29T14:55:33;6.50;;;2.22;;
28343;SDS011;15597;50.914;6.638;2023-05-29T14:58:03;5.82;;;2.13;;
28343;SDS011;15597;50.914;6.638;2023-05-29T15:00:29;5.32;;;2.33;;
28343;SDS011;15597;50.914;6.638;2023-05-29T15:02:54;6.25;;;1.77;;
28343;SDS011;15597;50.914;6.638;2023-05-29T15:05:22;7.40;;;2.22;;
28343;SDS011;15597;50.914;6.638;2023-05-29T15:07:47;6.80;;;2.40;;
28343;SDS011;15597;50.914;6.638;2023-05-29T15:10:13;6.13;;;1.80;;
28343;SDS011;15597;50.914;6.638;2023-05-29T15:12:38;6.35;;;2.33;;